Time;durP1;ratioP1;P1;durP2;ratioP2;P2;SDS_P1;SDS_P2;PMS_P1;PMS_P2;Temp;Humidity;BMP_temperature;BMP_pressure;BME280_temperature;BME280_humidity;BME280_pressure;Samples;Min_cycle;Max_cycle;Signal;HPM_P1;HPM_P2
2024/04/18 00:02:04;;;;;;;4.30;3.63;;;5.40;99.90;;;;;;5454818;26;20436;-89
2024/04/18 00:04:29;;;;;;;5.00;2.90;;;5.40;99.90;;;;;;5452345;26;20010;-89
2024/04/18 00:06:55;;;;;;;4.90;2.75;;;5.30;99.90;;;;;;5391639;26;20649;-88
2024/04/18 00:09:21;;;;;;;4.03;3.20;;;5.30;99.90;;;;;;5429482;26;20005;-90
2024/04/18 00:11:46;;;;;;;4.32;3.03;;;5.40;99.90;;;;;;5431292;26;20000;-87
2024/04/18 00:14:12;;;;;;;5.50;3.05;;;5.30;99.90;;;;;;5456674;26;20034;-88
2024/04/18 00:16:37;;;;;;;7.15;3.33;;;5.30;99.90;;;;;;5472128;26;19990;-89
2024/04/18 00:19:03;;;;;;;4.22;2.83;;;5.30;99.90;;;;;;5459675;26;19999;-89
2024/04/18 00:21:29;;;;;;;5.38;3.63;;;5.30;99.90;;;;;;5458938;26;19995;-90
2024/04/18 00:23:55;;;;;;;5.72;2.80;;;5.30;99.90;;;;;;5446761;26;20567;-89
2024/04/18 00:26:20;;;;;;;8.32;3.10;;;5.40;99.90;;;;;;5449914;26;19990;-88
2024/04/18 00:28:46;;;;;;;5.53;3.13;;;5.40;99.90;;;;;;5436912;26;20006;-89
2024/04/18 00:31:11;;;;;;;4.13;3.03;;;5.40;99.90;;;;;;5452026;26;20002;-88
2024/04/18 00:33:37;;;;;;;7.90;3.38;;;5.40;99.90;;;;;;5457631;26;19992;-90
2024/04/18 00:36:05;;;;;;;5.55;4.05;;;5.40;99.90;;;;;;5452587;26;20475;-91
2024/04/18 00:38:31;;;;;;;7.35;3.70;;;5.40;99.90;;;;;;5458073;26;20011;-89
2024/04/18 00:40:56;;;;;;;4.45;3.15;;;5.40;99.90;;;;;;5472420;26;20008;-90
2024/04/18 00:43:22;;;;;;;4.35;2.67;;;5.40;99.90;;;;;;5459144;26;20022;-88
2024/04/18 00:45:47;;;;;;;6.65;3.20;;;5.40;99.90;;;;;;5456957;26;20037;-89
2024/04/18 00:48:13;;;;;;;5.28;2.97;;;5.40;99.90;;;;;;5457302;26;20010;-90
2024/04/18 00:50:39;;;;;;;5.38;3.90;;;5.50;99.90;;;;;;5472225;26;20497;-88
2024/04/18 00:53:06;;;;;;;4.82;3.33;;;5.50;99.90;;;;;;5421629;26;20007;-89
2024/04/18 00:55:35;;;;;;;8.60;4.03;;;5.50;99.90;;;;;;5457710;26;20039;-88
2024/04/18 00:58:01;;;;;;;4.68;3.53;;;5.50;99.90;;;;;;5472071;26;20032;-89
2024/04/18 01:00:27;;;;;;;5.97;4.05;;;5.40;99.90;;;;;;5453547;26;19999;-88
2024/04/18 01:02:53;;;;;;;5.72;4.70;;;5.40;99.90;;;;;;5422785;26;20326;-88
2024/04/18 01:05:20;;;;;;;5.60;4.45;;;5.30;99.90;;;;;;5433050;26;20113;-90
2024/04/18 01:07:45;;;;;;;5.85;3.53;;;5.20;99.90;;;;;;5458320;26;20009;-90
2024/04/18 01:10:11;;;;;;;8.00;5.28;;;5.20;99.90;;;;;;5458124;26;20349;-90
2024/04/18 01:12:37;;;;;;;7.35;3.83;;;5.20;99.90;;;;;;5457478;26;20002;-88
2024/04/18 01:15:03;;;;;;;5.20;4.47;;;5.20;99.90;;;;;;5454592;26;19995;-88
2024/04/18 01:17:29;;;;;;;6.90;4.28;;;5.10;99.90;;;;;;5445289;26;20009;-90
2024/04/18 01:19:54;;;;;;;8.27;4.57;;;5.20;99.90;;;;;;5455947;26;19995;-90
2024/04/18 01:22:21;;;;;;;6.03;4.05;;;5.30;99.90;;;;;;5444151;26;20432;-90
2024/04/18 01:24:46;;;;;;;7.47;5.53;;;5.20;99.90;;;;;;5456728;26;20364;-89
2024/04/18 01:27:12;;;;;;;9.00;5.03;;;5.20;99.90;;;;;;5442291;26;19994;-88
2024/04/18 01:29:37;;;;;;;6.97;4.25;;;5.20;99.90;;;;;;5411375;26;20082;-90
2024/04/18 01:32:03;;;;;;;6.80;5.00;;;5.10;99.90;;;;;;5453861;26;20003;-89
2024/04/18 01:34:29;;;;;;;7.80;5.20;;;5.10;99.90;;;;;;5454786;26;20019;-89
2024/04/18 01:36:55;;;;;;;6.32;4.38;;;5.20;99.90;;;;;;5440640;26;20068;-89
2024/04/18 01:39:20;;;;;;;6.35;5.38;;;5.10;99.90;;;;;;5449126;26;20473;-90
2024/04/18 01:41:46;;;;;;;7.32;5.25;;;5.20;99.90;;;;;;5451082;26;20007;-89
2024/04/18 01:44:12;;;;;;;9.68;4.78;;;5.10;99.90;;;;;;5448272;26;20003;-90
2024/04/18 01:46:37;;;;;;;8.98;4.85;;;5.20;99.90;;;;;;5444546;26;20005;-87
2024/04/18 01:49:03;;;;;;;6.15;4.10;;;5.20;99.90;;;;;;5437589;26;19996;-88
2024/04/18 01:51:29;;;;;;;8.93;5.03;;;5.30;99.90;;;;;;5452447;26;20002;-88
2024/04/18 01:53:54;;;;;;;7.65;5.18;;;5.30;99.90;;;;;;5414900;26;20003;-89
2024/04/18 01:56:20;;;;;;;7.88;5.80;;;5.30;99.90;;;;;;5439243;26;19999;-88
2024/04/18 01:58:46;;;;;;;8.23;5.10;;;5.30;99.90;;;;;;5414629;26;20461;-89
2024/04/18 02:01:12;;;;;;;9.77;5.72;;;5.20;99.90;;;;;;5422374;26;20055;-89
2024/04/18 02:03:37;;;;;;;9.00;5.00;;;5.30;99.90;;;;;;5454471;26;20434;-88
2024/04/18 02:06:03;;;;;;;7.47;4.50;;;5.30;99.90;;;;;;5457126;26;19998;-89
2024/04/18 02:08:29;;;;;;;9.68;5.53;;;5.20;99.90;;;;;;5459681;26;20006;-88
2024/04/18 02:10:54;;;;;;;10.57;5.22;;;5.20;99.90;;;;;;5451400;26;20351;-88
2024/04/18 02:13:20;;;;;;;8.75;5.22;;;5.20;99.90;;;;;;5470979;26;20051;-89
2024/04/18 02:15:46;;;;;;;8.82;5.03;;;5.20;99.90;;;;;;5471334;26;19999;-87
2024/04/18 02:18:11;;;;;;;7.65;5.18;;;5.20;99.90;;;;;;5452885;26;20010;-88
2024/04/18 02:20:37;;;;;;;8.63;6.18;;;5.20;99.90;;;;;;5414347;26;20014;-89
2024/04/18 02:23:03;;;;;;;8.60;5.97;;;5.20;99.90;;;;;;5447917;26;19999;-88
2024/04/18 02:25:28;;;;;;;10.35;5.60;;;5.20;99.90;;;;;;5452940;26;20003;-87
2024/04/18 02:27:54;;;;;;;7.55;5.45;;;5.20;99.90;;;;;;5436367;26;20022;-87
2024/04/18 02:30:19;;;;;;;8.07;5.20;;;5.20;99.90;;;;;;5423598;26;20005;-87
2024/04/18 02:32:45;;;;;;;9.60;5.85;;;5.20;99.90;;;;;;5442618;26;20077;-88
2024/04/18 02:35:11;;;;;;;7.47;5.47;;;5.10;99.90;;;;;;5450395;26;20006;-88
2024/04/18 02:37:36;;;;;;;8.85;5.40;;;5.10;99.90;;;;;;5442439;26;19998;-88
2024/04/18 02:40:02;;;;;;;8.27;6.00;;;5.20;99.90;;;;;;5438765;26;20010;-87
2024/04/18 02:42:28;;;;;;;11.30;5.40;;;5.20;99.90;;;;;;5450872;26;20009;-88
2024/04/18 02:44:53;;;;;;;11.15;6.13;;;5.20;99.90;;;;;;5450183;26;20061;-88
2024/04/18 02:47:19;;;;;;;12.70;5.75;;;5.20;99.90;;;;;;5416455;26;20028;-87
2024/04/18 02:49:45;;;;;;;9.02;5.60;;;5.10;99.90;;;;;;5430626;26;20007;-88
2024/04/18 02:52:10;;;;;;;9.27;5.80;;;5.10;99.90;;;;;;5450429;26;20017;-87
2024/04/18 02:54:36;;;;;;;10.10;6.13;;;5.10;99.90;;;;;;5436577;26;20009;-88
2024/04/18 02:57:02;;;;;;;10.40;5.82;;;5.20;99.90;;;;;;5423418;26;20330;-87
2024/04/18 02:59:27;;;;;;;9.18;6.78;;;5.10;99.90;;;;;;5446896;26;19991;-87
2024/04/18 03:01:53;;;;;;;10.70;6.68;;;5.20;99.90;;;;;;5458340;26;20393;-87
2024/04/18 03:04:19;;;;;;;7.93;6.03;;;5.20;99.90;;;;;;5457373;26;20044;-88
2024/04/18 03:06:48;;;;;;;11.30;6.97;;;5.10;99.90;;;;;;5457539;26;19998;-89
2024/04/18 03:09:15;;;;;;;9.82;6.03;;;5.10;99.90;;;;;;5457012;26;20027;-87
2024/04/18 03:11:44;;;;;;;11.23;6.88;;;5.00;99.90;;;;;;5457632;26;20006;-86
2024/04/18 03:14:09;;;;;;;10.75;5.97;;;4.90;99.90;;;;;;5440501;26;20175;-87
2024/04/18 03:16:35;;;;;;;11.90;5.78;;;5.00;99.90;;;;;;5444108;26;20541;-88
2024/04/18 03:19:01;;;;;;;10.60;6.65;;;4.90;99.90;;;;;;5450777;26;19999;-86
2024/04/18 03:21:26;;;;;;;10.25;5.32;;;5.00;99.90;;;;;;5458229;26;20089;-88
2024/04/18 03:23:52;;;;;;;10.80;6.22;;;5.10;99.90;;;;;;5453351;26;20015;-87
2024/04/18 03:26:17;;;;;;;8.18;5.93;;;5.20;99.90;;;;;;5440252;26;19995;-88
2024/04/18 03:28:43;;;;;;;11.05;6.78;;;5.20;99.90;;;;;;5456255;26;20329;-89
2024/04/18 03:31:08;;;;;;;9.38;5.70;;;5.20;99.90;;;;;;5449633;26;19999;-88
2024/04/18 03:33:34;;;;;;;9.25;6.35;;;5.20;99.90;;;;;;5451027;26;20756;-87
2024/04/18 03:36:04;;;;;;;8.73;5.55;;;5.20;99.90;;;;;;5434688;26;20014;-90
2024/04/18 03:38:29;;;;;;;10.45;6.90;;;5.20;99.90;;;;;;5465975;26;20286;-88
2024/04/18 03:40:58;;;;;;;11.13;6.05;;;5.30;99.90;;;;;;5455025;26;20045;-87
2024/04/18 03:43:24;;;;;;;7.53;6.07;;;5.30;99.90;;;;;;5449223;26;20010;-88
2024/04/18 03:46:00;;;;;;;7.05;4.90;;;5.40;99.90;;;;;;5398198;26;19995;-87
2024/04/18 03:48:26;;;;;;;8.43;5.38;;;5.30;99.90;;;;;;5440636;26;19995;-88
2024/04/18 03:50:52;;;;;;;8.93;6.05;;;5.30;99.90;;;;;;5443749;26;20027;-87
2024/04/18 03:53:18;;;;;;;6.43;4.95;;;5.30;99.90;;;;;;5443579;26;19999;-88
2024/04/18 03:55:43;;;;;;;8.55;5.05;;;5.20;99.90;;;;;;5448136;26;20012;-88
2024/04/18 03:58:09;;;;;;;7.32;5.28;;;5.30;99.90;;;;;;5452342;26;20027;-88
2024/04/18 04:00:34;;;;;;;6.20;4.45;;;5.20;99.90;;;;;;5455307;26;20511;-89
2024/04/18 04:03:00;;;;;;;7.50;6.00;;;5.30;99.90;;;;;;5437255;26;20023;-88
2024/04/18 04:05:26;;;;;;;7.00;4.20;;;5.20;99.90;;;;;;5437266;26;20028;-87
2024/04/18 04:07:51;;;;;;;6.65;4.43;;;5.20;99.90;;;;;;5438556;26;19992;-88
2024/04/18 04:10:17;;;;;;;7.07;4.75;;;5.20;99.90;;;;;;5440070;26;19991;-88
2024/04/18 04:12:42;;;;;;;6.70;4.60;;;5.10;99.90;;;;;;5440061;26;19995;-89
2024/04/18 04:15:08;;;;;;;7.22;4.63;;;5.10;99.90;;;;;;5450581;26;20009;-88
2024/04/18 04:17:36;;;;;;;6.05;4.57;;;5.10;99.90;;;;;;5428674;26;19995;-88
2024/04/18 04:20:02;;;;;;;6.70;4.78;;;5.10;99.90;;;;;;5441290;26;20015;-89
2024/04/18 04:22:28;;;;;;;6.50;5.18;;;5.10;99.90;;;;;;5431576;26;19996;-88
2024/04/18 04:24:53;;;;;;;8.45;5.60;;;5.00;99.90;;;;;;5424520;26;20003;-88
2024/04/18 04:27:19;;;;;;;7.80;5.22;;;5.00;99.90;;;;;;5441181;26;20002;-88
2024/04/18 04:29:44;;;;;;;7.85;5.20;;;5.10;99.90;;;;;;5442139;26;19999;-88
2024/04/18 04:32:20;;;;;;;8.23;4.82;;;5.10;99.90;;;;;;5428527;26;19991;-87
2024/04/18 04:34:45;;;;;;;7.15;4.60;;;5.10;99.90;;;;;;5432948;26;20102;-92
2024/04/18 04:37:11;;;;;;;7.78;5.32;;;5.20;99.90;;;;;;5443635;26;20007;-90
2024/04/18 04:39:36;;;;;;;9.95;5.97;;;5.10;99.90;;;;;;5463659;26;19995;-90
2024/04/18 04:42:02;;;;;;;9.70;5.95;;;5.20;99.90;;;;;;5454106;26;20021;-91
2024/04/18 04:44:28;;;;;;;10.32;6.07;;;5.20;99.90;;;;;;5402609;26;20030;-90
2024/04/18 04:46:53;;;;;;;8.95;5.80;;;5.20;99.90;;;;;;5460686;26;20080;-89
2024/04/18 04:49:19;;;;;;;9.38;6.10;;;5.10;99.90;;;;;;5425834;26;20447;-90
2024/04/18 04:51:45;;;;;;;9.23;5.22;;;5.10;99.90;;;;;;5424886;26;20027;-89
2024/04/18 04:54:10;;;;;;;9.60;6.32;;;5.10;99.90;;;;;;5451304;26;20007;-90
2024/04/18 04:56:36;;;;;;;7.10;5.22;;;5.20;99.90;;;;;;5433656;26;20002;-91
2024/04/18 04:59:01;;;;;;;9.65;4.65;;;5.20;99.90;;;;;;5473556;26;20006;-90
2024/04/18 05:01:27;;;;;;;7.85;5.63;;;5.30;99.90;;;;;;5435605;26;20011;-91
2024/04/18 05:03:53;;;;;;;6.78;4.82;;;5.30;99.90;;;;;;5433197;26;20003;-88
2024/04/18 05:06:18;;;;;;;9.20;5.25;;;5.30;99.90;;;;;;5454010;26;20003;-90
2024/04/18 05:08:47;;;;;;;8.65;5.25;;;5.20;99.90;;;;;;5441065;26;20011;-92
2024/04/18 05:11:12;;;;;;;6.75;4.32;;;5.20;99.90;;;;;;5440360;26;20016;-91
2024/04/18 05:13:39;;;;;;;7.40;4.25;;;5.20;99.90;;;;;;5446736;26;20014;-90
2024/04/18 05:16:05;;;;;;;8.52;5.50;;;5.30;99.90;;;;;;5452155;26;19999;-90
2024/04/18 05:18:31;;;;;;;8.10;5.25;;;5.30;99.90;;;;;;5454046;26;20010;-90
2024/04/18 05:21:00;;;;;;;7.60;5.18;;;5.30;99.90;;;;;;5454107;26;19999;-90
2024/04/18 05:23:26;;;;;;;6.32;4.50;;;5.30;99.90;;;;;;5449613;26;20390;-91
2024/04/18 05:25:51;;;;;;;28.20;20.83;;;5.40;99.90;;;;;;5423232;26;20085;-90
2024/04/18 05:28:21;;;;;;;10.40;6.55;;;5.30;99.90;;;;;;5429376;26;19996;-91
2024/04/18 05:31:03;;;;;;;11.02;9.93;;;5.30;99.90;;;;;;5449149;26;19999;-91
2024/04/18 05:33:30;;;;;;;19.75;17.98;;;5.40;99.90;;;;;;5446391;26;19994;-92
2024/04/18 05:35:56;;;;;;;14.88;13.45;;;5.30;99.90;;;;;;5420581;26;19999;-91
2024/04/18 05:38:21;;;;;;;8.82;6.28;;;5.30;99.90;;;;;;5422730;26;20010;-91
2024/04/18 05:40:48;;;;;;;7.85;4.82;;;5.40;99.90;;;;;;5410746;26;20012;-92
2024/04/18 05:43:14;;;;;;;7.60;6.07;;;5.30;99.90;;;;;;5436469;26;20007;-90
2024/04/18 05:45:39;;;;;;;7.53;4.68;;;5.40;99.90;;;;;;5429690;26;20069;-91
2024/04/18 05:48:05;;;;;;;8.98;5.57;;;5.50;99.90;;;;;;5436277;26;19994;-91
2024/04/18 05:50:31;;;;;;;10.82;7.45;;;5.30;99.90;;;;;;5411769;26;19996;-89
2024/04/18 05:52:56;;;;;;;10.25;5.78;;;5.20;99.90;;;;;;5451682;26;19999;-89
2024/04/18 05:55:22;;;;;;;8.32;5.45;;;5.20;99.90;;;;;;5437156;26;20002;-91
2024/04/18 05:57:47;;;;;;;8.68;6.38;;;5.10;99.90;;;;;;5448679;26;20540;-91
2024/04/18 06:00:13;;;;;;;7.40;4.72;;;5.20;99.90;;;;;;5431014;26;20010;-90
2024/04/18 06:02:40;;;;;;;4.53;3.80;;;5.10;99.90;;;;;;5424554;26;20610;-90
2024/04/18 06:05:06;;;;;;;3.63;3.20;;;5.00;99.90;;;;;;5422634;26;20006;-89
2024/04/18 06:07:32;;;;;;;2.40;2.20;;;5.00;99.90;;;;;;5403446;26;20002;-90
2024/04/18 06:09:58;;;;;;;3.45;2.17;;;5.00;99.90;;;;;;5403189;26;20003;-90
2024/04/18 06:12:23;;;;;;;3.10;2.17;;;4.90;99.90;;;;;;5417082;26;20010;-90
2024/04/18 06:14:49;;;;;;;2.90;2.60;;;4.90;99.90;;;;;;5443031;26;19995;-89
2024/04/18 06:17:16;;;;;;;2.85;2.55;;;5.00;99.90;;;;;;5441886;26;20006;-90
2024/04/18 06:19:42;;;;;;;4.47;2.90;;;5.00;99.90;;;;;;5465295;26;20005;-89
2024/04/18 06:22:07;;;;;;;4.15;2.45;;;4.90;99.90;;;;;;5424188;26;19998;-89
2024/04/18 06:24:33;;;;;;;2.83;2.35;;;4.90;99.90;;;;;;5464921;26;20013;-90
2024/04/18 06:26:59;;;;;;;2.88;2.20;;;4.80;99.90;;;;;;5433661;26;20032;-91
2024/04/18 06:29:26;;;;;;;3.10;2.53;;;4.80;99.90;;;;;;5467076;26;19994;-90
2024/04/18 06:31:52;;;;;;;3.33;2.67;;;4.70;99.90;;;;;;5417985;26;20025;-89
2024/04/18 06:34:18;;;;;;;3.83;2.60;;;4.80;99.90;;;;;;5423018;26;19991;-90
2024/04/18 06:36:43;;;;;;;4.85;2.80;;;4.70;99.90;;;;;;5447828;26;20345;-89
2024/04/18 06:39:09;;;;;;;4.20;3.65;;;4.70;99.90;;;;;;5437978;26;20021;-90
2024/04/18 06:41:36;;;;;;;6.25;4.03;;;4.70;99.90;;;;;;5408148;26;20062;-89
2024/04/18 06:44:01;;;;;;;4.68;1.77;;;4.70;99.90;;;;;;5439513;26;20052;-90
2024/04/18 06:46:27;;;;;;;3.53;2.17;;;4.70;99.90;;;;;;5397143;26;19999;-90
2024/04/18 06:48:57;;;;;;;3.30;2.42;;;4.50;99.90;;;;;;5412647;26;20010;-88
2024/04/18 06:51:23;;;;;;;4.57;2.55;;;4.60;99.90;;;;;;5446605;26;20329;-89
2024/04/18 06:53:49;;;;;;;3.33;2.05;;;4.60;99.90;;;;;;5426713;26;20025;-89
2024/04/18 06:56:14;;;;;;;2.65;2.00;;;4.70;99.90;;;;;;5391460;26;20735;-89
2024/04/18 06:58:40;;;;;;;2.53;2.22;;;4.60;99.90;;;;;;5423000;26;20010;-89
2024/04/18 07:01:06;;;;;;;2.25;1.42;;;4.50;99.90;;;;;;5417848;26;20019;-89
2024/04/18 07:03:31;;;;;;;2.95;2.50;;;4.50;99.90;;;;;;5449569;26;20012;-90
2024/04/18 07:05:58;;;;;;;2.42;2.00;;;4.50;99.90;;;;;;5421996;26;19999;-90
2024/04/18 07:08:24;;;;;;;2.47;1.88;;;4.40;99.90;;;;;;5447663;26;20364;-90
2024/04/18 07:10:51;;;;;;;3.53;2.05;;;4.40;99.90;;;;;;5435375;26;20015;-91
2024/04/18 07:13:17;;;;;;;3.95;1.67;;;4.40;99.90;;;;;;5443819;26;19996;-89
2024/04/18 07:15:42;;;;;;;3.13;1.80;;;4.40;99.90;;;;;;5438237;26;20006;-90
2024/04/18 07:18:08;;;;;;;2.50;1.95;;;4.30;99.90;;;;;;5445879;26;19998;-90
2024/04/18 07:20:34;;;;;;;2.30;2.10;;;4.30;99.90;;;;;;5423990;26;20010;-89
2024/04/18 07:22:59;;;;;;;2.55;1.92;;;4.30;99.90;;;;;;5443212;26;20006;-90
2024/04/18 07:25:25;;;;;;;2.65;1.90;;;4.30;99.90;;;;;;5435587;26;20425;-88
2024/04/18 07:27:51;;;;;;;2.13;1.75;;;4.30;99.90;;;;;;5450515;26;20070;-90
2024/04/18 07:30:16;;;;;;;1.65;1.55;;;4.30;99.90;;;;;;5450208;26;20007;-90
2024/04/18 07:32:42;;;;;;;1.67;0.98;;;4.40;99.90;;;;;;5448925;26;20006;-90
2024/04/18 07:35:08;;;;;;;1.92;1.65;;;4.30;99.90;;;;;;5447915;26;19995;-92
2024/04/18 07:37:34;;;;;;;1.55;1.10;;;4.40;99.90;;;;;;5460346;26;20444;-90
2024/04/18 07:40:11;;;;;;;2.10;1.65;;;4.40;99.90;;;;;;5471188;26;20009;-89
2024/04/18 07:42:36;;;;;;;2.97;2.78;;;4.40;99.90;;;;;;5468042;26;20003;-90
2024/04/18 07:45:02;;;;;;;2.28;2.17;;;4.50;99.90;;;;;;5452848;26;20018;-90
2024/04/18 07:47:28;;;;;;;3.65;1.85;;;4.60;99.90;;;;;;5452793;26;20006;-91
2024/04/18 07:49:54;;;;;;;1.15;1.02;;;4.70;99.90;;;;;;5453530;26;19999;-90
2024/04/18 07:52:20;;;;;;;2.40;2.20;;;4.80;99.90;;;;;;5453418;26;20044;-89
2024/04/18 07:54:46;;;;;;;2.78;1.30;;;4.80;99.90;;;;;;5456319;26;19995;-89
2024/04/18 07:57:11;;;;;;;3.33;2.22;;;4.90;99.90;;;;;;5455202;26;20392;-90
2024/04/18 07:59:37;;;;;;;1.85;1.30;;;4.90;99.90;;;;;;5457408;26;19994;-90
2024/04/18 08:02:03;;;;;;;1.83;1.10;;;5.00;99.90;;;;;;5455346;26;19994;-89
2024/04/18 08:04:29;;;;;;;2.33;1.25;;;5.10;99.90;;;;;;5455448;26;20005;-91
2024/04/18 08:06:55;;;;;;;1.55;1.00;;;5.00;99.90;;;;;;5423285;26;19991;-90
2024/04/18 08:09:21;;;;;;;1.60;1.50;;;4.90;99.90;;;;;;5431825;26;20597;-91
2024/04/18 08:11:47;;;;;;;1.67;1.25;;;4.90;99.90;;;;;;5447138;26;20033;-91
2024/04/18 08:14:13;;;;;;;2.47;1.20;;;5.00;99.90;;;;;;5439264;26;20007;-92
2024/04/18 08:16:38;;;;;;;2.08;1.85;;;5.00;99.90;;;;;;5429600;26;19991;-90
2024/04/18 08:19:04;;;;;;;1.75;1.50;;;4.90;99.90;;;;;;5448073;26;19992;-90
2024/04/18 08:21:30;;;;;;;1.40;1.23;;;5.10;99.90;;;;;;5426222;26;19995;-92
2024/04/18 08:23:57;;;;;;;2.55;1.98;;;5.20;99.90;;;;;;5437702;26;20011;-90
2024/04/18 08:26:22;;;;;;;3.00;2.15;;;5.30;99.90;;;;;;5461829;26;20082;-91
2024/04/18 08:28:48;;;;;;;1.88;1.25;;;5.30;99.90;;;;;;5434344;26;20462;-91
2024/04/18 08:31:14;;;;;;;1.88;1.30;;;5.30;99.90;;;;;;5454011;26;20064;-91
2024/04/18 08:33:40;;;;;;;4.50;2.38;;;5.40;99.90;;;;;;5439226;26;19994;-92
2024/04/18 08:36:06;;;;;;;2.33;1.52;;;5.50;99.90;;;;;;5413135;26;20011;-91
2024/04/18 08:38:32;;;;;;;3.13;1.70;;;5.60;99.90;;;;;;5474329;26;20021;-92
2024/04/18 08:41:10;;;;;;;2.90;1.77;;;5.70;99.90;;;;;;5428891;26;20003;-90
2024/04/18 08:43:36;;;;;;;2.35;1.80;;;5.90;99.00;;;;;;5453988;26;19995;-91
2024/04/18 08:46:04;;;;;;;3.65;2.45;;;6.00;96.90;;;;;;5458372;26;20124;-92
2024/04/18 08:48:32;;;;;;;4.60;2.92;;;6.10;99.30;;;;;;5463055;26;19998;-92
2024/04/18 08:51:00;;;;;;;5.07;2.90;;;6.20;97.80;;;;;;5428068;26;20567;-92
2024/04/18 08:53:26;;;;;;;4.63;2.17;;;6.20;99.00;;;;;;5395279;26;20006;-91
2024/04/18 08:55:56;;;;;;;4.72;3.17;;;6.20;96.50;;;;;;5455459;26;20029;-93
2024/04/18 08:58:22;;;;;;;5.50;3.05;;;6.20;99.30;;;;;;5455137;26;20003;-90
2024/04/18 09:00:48;;;;;;;7.78;3.90;;;6.30;98.30;;;;;;5428817;26;20000;-91
2024/04/18 09:03:14;;;;;;;7.68;3.88;;;6.30;99.90;;;;;;5463818;26;20011;-91
2024/04/18 09:05:41;;;;;;;6.63;4.43;;;6.60;99.00;;;;;;5445941;26;20002;-92
2024/04/18 09:08:12;;;;;;;6.63;3.97;;;6.80;99.20;;;;;;5455180;26;20009;-92
2024/04/18 09:10:38;;;;;;;5.75;4.15;;;7.10;94.60;;;;;;5440107;26;19995;-90
2024/04/18 09:13:03;;;;;;;7.75;4.18;;;7.10;96.60;;;;;;5422478;26;19998;-92
2024/04/18 09:15:30;;;;;;;10.23;5.47;;;7.20;93.50;;;;;;5446573;26;20020;-91
2024/04/18 09:18:07;;;;;;;11.55;6.35;;;7.40;93.50;;;;;;5458329;26;20459;-92
2024/04/18 09:20:34;;;;;;;8.77;5.35;;;7.60;94.60;;;;;;5456257;26;19999;-91
2024/04/18 09:23:00;;;;;;;11.85;7.30;;;7.70;93.90;;;;;;5470643;26;20004;-90
2024/04/18 09:25:26;;;;;;;9.10;5.07;;;7.80;94.30;;;;;;5447802;26;20007;-93
2024/04/18 09:27:52;;;;;;;11.93;6.15;;;8.00;93.70;;;;;;5448950;26;19995;-92
2024/04/18 09:30:18;;;;;;;10.90;6.68;;;8.20;94.40;;;;;;5439361;26;19998;-92
2024/04/18 09:32:44;;;;;;;10.40;7.32;;;8.20;94.30;;;;;;5477022;26;20641;-93
2024/04/18 09:35:11;;;;;;;10.18;7.03;;;8.40;94.40;;;;;;5426465;26;20399;-90
2024/04/18 09:37:41;;;;;;;10.35;6.53;;;8.50;90.60;;;;;;5454816;26;20022;-92
2024/04/18 09:40:11;;;;;;;11.13;5.55;;;8.70;93.50;;;;;;5454443;26;20011;-91
2024/04/18 09:43:18;;;;;;;11.32;6.97;;;8.20;90.10;;;;;;5447126;26;20098;-91
2024/04/18 09:46:05;;;;;;;10.05;6.75;;;8.20;91.50;;;;;;5471301;26;20012;-91
2024/04/18 09:48:32;;;;;;;11.65;6.80;;;8.50;95.70;;;;;;5460473;26;20011;-92
2024/04/18 09:50:58;;;;;;;13.07;6.93;;;8.60;92.90;;;;;;5470054;26;20594;-92
2024/04/18 09:53:24;;;;;;;11.07;7.43;;;8.80;86.80;;;;;;5455684;26;20013;-91
2024/04/18 09:55:50;;;;;;;12.57;7.70;;;8.40;87.50;;;;;;5455033;26;20022;-93
2024/04/18 09:58:18;;;;;;;12.60;7.15;;;8.40;88.50;;;;;;5457500;26;20009;-91
2024/04/18 10:00:45;;;;;;;13.85;8.43;;;8.40;91.10;;;;;;5440662;26;20003;-91
2024/04/18 10:03:12;;;;;;;12.57;7.50;;;8.30;91.80;;;;;;5452964;26;20007;-92
2024/04/18 10:05:39;;;;;;;14.60;10.30;;;8.40;87.80;;;;;;5458296;26;19994;-91
2024/04/18 10:08:07;;;;;;;15.32;8.43;;;8.50;91.30;;;;;;5454179;26;19998;-91
2024/04/18 10:10:34;;;;;;;13.20;7.38;;;8.30;89.90;;;;;;5430970;26;20011;-91
2024/04/18 10:13:01;;;;;;;12.68;8.15;;;8.20;88.30;;;;;;5417533;26;20019;-91
2024/04/18 10:15:26;;;;;;;12.65;6.88;;;8.40;92.90;;;;;;5446670;26;20014;-90
2024/04/18 10:17:52;;;;;;;11.50;7.10;;;8.70;89.30;;;;;;5464754;26;19998;-91
2024/04/18 10:20:18;;;;;;;13.60;8.20;;;8.80;84.90;;;;;;5481770;26;20000;-90
2024/04/18 10:22:44;;;;;;;12.40;7.85;;;9.00;90.70;;;;;;5421238;26;19996;-92
2024/04/18 10:25:19;;;;;;;12.75;7.70;;;9.40;89.80;;;;;;5410485;26;19999;-91
2024/04/18 10:27:45;;;;;;;12.32;10.15;;;9.40;88.60;;;;;;5421302;26;20071;-92
2024/04/18 10:30:16;;;;;;;9.85;6.82;;;9.20;88.90;;;;;;5438420;26;20420;-92
2024/04/18 10:32:42;;;;;;;12.98;8.43;;;8.80;89.50;;;;;;5440636;26;20528;-91
2024/04/18 10:35:08;;;;;;;13.00;8.02;;;8.70;91.70;;;;;;5437868;26;20010;-92
2024/04/18 10:37:34;;;;;;;11.82;7.97;;;8.90;91.80;;;;;;5428933;26;19994;-92
2024/04/18 10:39:59;;;;;;;12.70;8.23;;;8.90;90.60;;;;;;5454926;26;20289;-91
2024/04/18 10:42:25;;;;;;;14.52;11.35;;;8.90;92.30;;;;;;5420425;26;20002;-91
2024/04/18 10:44:51;;;;;;;13.73;8.98;;;8.80;86.30;;;;;;5420884;26;19992;-92
2024/04/18 10:47:20;;;;;;;14.13;8.95;;;9.00;86.20;;;;;;5460992;26;19998;-92
2024/04/18 10:49:46;;;;;;;12.35;9.18;;;8.90;89.60;;;;;;5413819;26;20005;-91
2024/04/18 10:52:18;;;;;;;14.40;8.38;;;8.90;85.50;;;;;;5448243;26;19996;-93
2024/04/18 10:54:46;;;;;;;13.68;8.77;;;9.00;89.20;;;;;;5429901;26;20002;-93
2024/04/18 10:57:12;;;;;;;13.38;8.30;;;9.00;89.40;;;;;;5480039;26;20044;-93
2024/04/18 10:59:38;;;;;;;13.95;9.40;;;9.00;88.20;;;;;;5443655;26;20013;-92
2024/04/18 11:02:08;;;;;;;12.88;9.50;;;9.10;87.70;;;;;;5452148;26;20072;-91
2024/04/18 11:04:34;;;;;;;14.35;9.25;;;9.40;90.90;;;;;;5435987;26;20247;-92
2024/04/18 11:07:03;;;;;;;13.85;8.73;;;9.90;89.20;;;;;;5458718;26;19999;-91
2024/04/18 11:09:31;;;;;;;14.68;10.43;;;10.20;82.10;;;;;;5416330;26;20031;-91
2024/04/18 11:11:56;;;;;;;12.82;10.00;;;10.50;82.90;;;;;;5403923;26;20039;-92
2024/04/18 11:14:23;;;;;;;14.77;10.20;;;11.00;76.20;;;;;;5456512;26;19994;-93
2024/04/18 11:17:00;;;;;;;12.73;9.02;;;11.30;87.80;;;;;;5457683;26;20071;-92
2024/04/18 11:19:29;;;;;;;11.30;7.70;;;11.10;78.00;;;;;;5457222;26;19999;-92
2024/04/18 11:21:59;;;;;;;11.45;7.60;;;10.80;78.50;;;;;;5455796;26;20030;-92
2024/04/18 11:24:25;;;;;;;13.32;9.40;;;10.40;76.30;;;;;;5449705;26;19996;-93
2024/04/18 11:26:51;;;;;;;10.85;7.60;;;10.30;80.40;;;;;;5451891;26;20075;-93
2024/04/18 11:29:17;;;;;;;10.00;7.25;;;10.30;79.30;;;;;;5410996;26;19995;-92
2024/04/18 11:31:43;;;;;;;10.63;9.13;;;9.80;79.50;;;;;;5460134;26;20007;-93
2024/04/18 11:34:09;;;;;;;11.38;7.97;;;9.80;83.60;;;;;;5425823;26;20404;-92
2024/04/18 11:36:37;;;;;;;9.52;6.75;;;9.60;84.50;;;;;;5426830;26;20013;-92
2024/04/18 11:39:04;;;;;;;11.02;8.38;;;9.60;86.00;;;;;;5473270;26;19995;-92
2024/04/18 11:41:31;;;;;;;13.80;9.88;;;9.70;86.90;;;;;;5472861;26;19998;-91
2024/04/18 11:43:56;;;;;;;10.48;7.00;;;9.90;81.30;;;;;;5439812;26;20335;-92
2024/04/18 11:46:22;;;;;;;11.70;10.38;;;10.00;81.50;;;;;;5444254;26;19995;-91
2024/04/18 11:48:48;;;;;;;11.60;7.65;;;10.20;79.90;;;;;;5458873;26;20523;-91
2024/04/18 11:51:14;;;;;;;10.90;8.77;;;11.20;80.80;;;;;;5456739;26;19998;-92
2024/04/18 11:53:39;;;;;;;12.25;8.38;;;11.70;69.80;;;;;;5457879;26;20063;-92
2024/04/18 11:56:05;;;;;;;11.75;8.95;;;11.80;74.50;;;;;;5461404;26;19995;-92
2024/04/18 11:58:31;;;;;;;8.88;5.97;;;11.90;71.90;;;;;;5485745;26;20322;-92
2024/04/18 12:00:56;;;;;;;9.95;8.25;;;11.30;73.00;;;;;;5475502;26;20006;-91
2024/04/18 12:03:26;;;;;;;9.50;7.80;;;10.80;74.70;;;;;;5496263;26;19990;-93
2024/04/18 12:05:52;;;;;;;11.85;8.07;;;10.80;77.00;;;;;;5450827;26;20084;-91
2024/04/18 12:08:17;;;;;;;10.00;8.18;;;10.50;77.10;;;;;;5479815;26;19998;-92
2024/04/18 12:10:43;;;;;;;9.75;8.25;;;10.50;81.00;;;;;;5467597;26;20027;-92
2024/04/18 12:13:09;;;;;;;10.73;8.25;;;10.90;76.10;;;;;;5425176;26;20002;-91
2024/04/18 12:15:35;;;;;;;10.93;7.75;;;11.60;73.00;;;;;;5459033;26;20009;-92
2024/04/18 12:18:02;;;;;;;10.30;7.10;;;12.30;66.10;;;;;;5462843;26;19995;-91
2024/04/18 12:20:28;;;;;;;8.88;6.82;;;12.30;66.10;;;;;;5427216;26;20023;-90
2024/04/18 12:22:54;;;;;;;10.73;9.05;;;12.30;65.00;;;;;;5436930;26;20513;-92
2024/04/18 12:25:19;;;;;;;10.38;6.75;;;11.70;66.30;;;;;;5478876;26;20005;-93
2024/04/18 12:27:46;;;;;;;9.77;7.28;;;11.40;68.20;;;;;;5468517;26;19998;-92
2024/04/18 12:30:11;;;;;;;10.73;8.38;;;11.30;72.90;;;;;;5474852;26;19998;-91
2024/04/18 12:32:37;;;;;;;11.05;7.30;;;11.30;74.20;;;;;;5431848;26;20039;-92
2024/04/18 12:35:03;;;;;;;10.13;8.60;;;11.20;76.40;;;;;;5485068;26;19994;-92
2024/04/18 12:37:28;;;;;;;9.48;6.05;;;11.00;76.60;;;;;;5472642;26;20714;-93
2024/04/18 12:39:54;;;;;;;10.88;6.32;;;10.80;75.70;;;;;;5420747;26;20437;-91
2024/04/18 12:42:20;;;;;;;8.82;7.45;;;10.80;76.40;;;;;;5434505;26;20013;-92
2024/04/18 12:44:45;;;;;;;9.30;7.85;;;10.90;81.70;;;;;;5438309;26;19996;-92
2024/04/18 12:47:11;;;;;;;8.88;5.78;;;10.90;76.50;;;;;;5455647;26;20019;-92
2024/04/18 12:49:37;;;;;;;8.88;7.57;;;10.60;78.90;;;;;;5459424;26;20512;-92